sensor_id;sensor_type;location;lat;lon;timestamp;P1;durP1;ratioP1;P2;durP2;ratioP2
22439;SDS011;11387;51.612;7.210;2023-08-20T00:00:38;9.80;;;4.80;;
22439;SDS011;11387;51.612;7.210;2023-08-20T00:03:10;10.18;;;4.93;;
22439;SDS011;11387;51.612;7.210;2023-08-20T00:05:43;12.38;;;5.25;;
22439;SDS011;11387;51.612;7.210;2023-08-20T00:08:11;11.70;;;5.25;;
22439;SDS011;11387;51.612;7.210;2023-08-20T00:10:40;7.55;;;4.97;;
22439;SDS011;11387;51.612;7.210;2023-08-20T00:13:08;11.63;;;4.95;;
22439;SDS011;11387;51.612;7.210;2023-08-20T00:15:37;7.05;;;4.07;;
22439;SDS011;11387;51.612;7.210;2023-08-20T00:18:07;10.30;;;4.50;;
22439;SDS011;11387;51.612;7.210;2023-08-20T00:20:36;7.68;;;4.38;;
22439;SDS011;11387;51.612;7.210;2023-08-20T00:23:07;7.90;;;4.32;;
22439;SDS011;11387;51.612;7.210;2023-08-20T00:25:36;9.82;;;3.97;;
22439;SDS011;11387;51.612;7.210;2023-08-20T00:28:15;10.13;;;5.72;;
22439;SDS011;11387;51.612;7.210;2023-08-20T00:30:44;7.15;;;4.32;;
22439;SDS011;11387;51.612;7.210;2023-08-20T00:33:13;12.13;;;5.25;;
22439;SDS011;11387;51.612;7.210;2023-08-20T00:35:41;9.73;;;4.63;;
22439;SDS011;11387;51.612;7.210;2023-08-20T00:38:11;8.50;;;5.03;;
22439;SDS011;11387;51.612;7.210;2023-08-20T00:40:40;12.25;;;4.78;;
22439;SDS011;11387;51.612;7.210;2023-08-20T00:43:09;7.72;;;4.63;;
22439;SDS011;11387;51.612;7.210;2023-08-20T00:45:37;14.15;;;5.13;;
22439;SDS011;11387;51.612;7.210;2023-08-20T00:48:07;7.32;;;5.13;;
22439;SDS011;11387;51.612;7.210;2023-08-20T00:50:36;8.05;;;5.65;;
22439;SDS011;11387;51.612;7.210;2023-08-20T00:53:06;9.85;;;6.55;;
22439;SDS011;11387;51.612;7.210;2023-08-20T00:55:40;16.50;;;7.38;;
22439;SDS011;11387;51.612;7.210;2023-08-20T00:58:10;17.73;;;9.32;;
22439;SDS011;11387;51.612;7.210;2023-08-20T01:00:39;15.40;;;9.60;;
22439;SDS011;11387;51.612;7.210;2023-08-20T01:03:08;25.40;;;14.80;;
22439;SDS011;11387;51.612;7.210;2023-08-20T01:05:39;22.75;;;14.18;;
22439;SDS011;11387;51.612;7.210;2023-08-20T01:08:20;19.95;;;12.88;;
22439;SDS011;11387;51.612;7.210;2023-08-20T01:11:00;23.67;;;12.95;;
22439;SDS011;11387;51.612;7.210;2023-08-20T01:13:31;19.48;;;11.85;;
22439;SDS011;11387;51.612;7.210;2023-08-20T01:16:00;22.98;;;13.27;;
22439;SDS011;11387;51.612;7.210;2023-08-20T01:18:29;16.52;;;12.90;;
22439;SDS011;11387;51.612;7.210;2023-08-20T01:20:58;20.98;;;12.90;;
22439;SDS011;11387;51.612;7.210;2023-08-20T01:27:00;23.65;;;13.80;;
22439;SDS011;11387;51.612;7.210;2023-08-20T01:29:37;21.60;;;13.73;;
22439;SDS011;11387;51.612;7.210;2023-08-20T01:32:07;19.00;;;14.18;;
22439;SDS011;11387;51.612;7.210;2023-08-20T01:34:38;22.48;;;15.13;;
22439;SDS011;11387;51.612;7.210;2023-08-20T01:37:06;22.05;;;14.02;;
22439;SDS011;11387;51.612;7.210;2023-08-20T01:39:37;25.17;;;15.63;;
22439;SDS011;11387;51.612;7.210;2023-08-20T01:42:06;23.30;;;16.42;;
22439;SDS011;11387;51.612;7.210;2023-08-20T01:44:36;21.75;;;15.30;;
22439;SDS011;11387;51.612;7.210;2023-08-20T01:47:05;22.10;;;14.57;;
22439;SDS011;11387;51.612;7.210;2023-08-20T01:49:34;23.27;;;16.98;;
22439;SDS011;11387;51.612;7.210;2023-08-20T01:52:02;27.17;;;17.35;;
22439;SDS011;11387;51.612;7.210;2023-08-20T01:54:33;25.73;;;17.35;;
22439;SDS011;11387;51.612;7.210;2023-08-20T01:57:01;30.70;;;17.80;;
22439;SDS011;11387;51.612;7.210;2023-08-20T01:59:30;28.10;;;18.60;;
22439;SDS011;11387;51.612;7.210;2023-08-20T02:02:00;27.83;;;18.77;;
22439;SDS011;11387;51.612;7.210;2023-08-20T02:04:28;28.40;;;19.50;;
22439;SDS011;11387;51.612;7.210;2023-08-20T02:06:58;26.73;;;18.20;;
22439;SDS011;11387;51.612;7.210;2023-08-20T02:09:26;26.17;;;18.83;;
22439;SDS011;11387;51.612;7.210;2023-08-20T02:11:55;34.22;;;21.17;;
22439;SDS011;11387;51.612;7.210;2023-08-20T02:14:23;29.90;;;21.60;;
22439;SDS011;11387;51.612;7.210;2023-08-20T02:16:54;33.78;;;22.20;;
22439;SDS011;11387;51.612;7.210;2023-08-20T02:19:24;32.63;;;22.52;;
22439;SDS011;11387;51.612;7.210;2023-08-20T02:22:06;39.58;;;24.50;;
22439;SDS011;11387;51.612;7.210;2023-08-20T02:24:35;35.65;;;23.27;;
22439;SDS011;11387;51.612;7.210;2023-08-20T02:27:04;38.72;;;24.73;;
22439;SDS011;11387;51.612;7.210;2023-08-20T02:29:32;38.22;;;25.90;;
22439;SDS011;11387;51.612;7.210;2023-08-20T02:32:01;37.55;;;24.92;;
22439;SDS011;11387;51.612;7.210;2023-08-20T02:34:30;41.65;;;26.92;;
22439;SDS011;11387;51.612;7.210;2023-08-20T02:36:59;44.25;;;27.17;;
22439;SDS011;11387;51.612;7.210;2023-08-20T02:39:28;37.60;;;23.98;;
22439;SDS011;11387;51.612;7.210;2023-08-20T02:41:56;36.15;;;25.00;;
22439;SDS011;11387;51.612;7.210;2023-08-20T02:44:25;31.48;;;22.63;;
22439;SDS011;11387;51.612;7.210;2023-08-20T02:46:53;33.72;;;22.95;;
22439;SDS011;11387;51.612;7.210;2023-08-20T02:49:22;40.85;;;25.42;;
22439;SDS011;11387;51.612;7.210;2023-08-20T02:51:52;35.88;;;24.55;;
22439;SDS011;11387;51.612;7.210;2023-08-20T02:54:20;37.10;;;24.85;;
22439;SDS011;11387;51.612;7.210;2023-08-20T02:56:49;36.85;;;25.98;;
22439;SDS011;11387;51.612;7.210;2023-08-20T02:59:17;36.13;;;24.23;;
22439;SDS011;11387;51.612;7.210;2023-08-20T03:01:46;36.20;;;24.05;;
22439;SDS011;11387;51.612;7.210;2023-08-20T03:04:14;36.55;;;24.27;;
22439;SDS011;11387;51.612;7.210;2023-08-20T03:06:43;38.22;;;24.70;;
22439;SDS011;11387;51.612;7.210;2023-08-20T03:09:13;37.28;;;24.45;;
22439;SDS011;11387;51.612;7.210;2023-08-20T03:11:42;34.83;;;24.23;;
22439;SDS011;11387;51.612;7.210;2023-08-20T03:14:10;42.17;;;25.48;;
22439;SDS011;11387;51.612;7.210;2023-08-20T03:16:39;39.25;;;26.40;;
22439;SDS011;11387;51.612;7.210;2023-08-20T03:19:07;49.03;;;28.95;;
22439;SDS011;11387;51.612;7.210;2023-08-20T03:21:50;45.47;;;27.23;;
22439;SDS011;11387;51.612;7.210;2023-08-20T03:24:20;41.33;;;28.08;;
22439;SDS011;11387;51.612;7.210;2023-08-20T03:27:00;47.95;;;27.58;;
22439;SDS011;11387;51.612;7.210;2023-08-20T03:29:30;41.25;;;26.98;;
22439;SDS011;11387;51.612;7.210;2023-08-20T03:31:58;44.17;;;27.98;;
22439;SDS011;11387;51.612;7.210;2023-08-20T03:34:27;47.67;;;30.83;;
22439;SDS011;11387;51.612;7.210;2023-08-20T03:36:55;47.30;;;30.55;;
22439;SDS011;11387;51.612;7.210;2023-08-20T03:39:42;59.15;;;32.97;;
22439;SDS011;11387;51.612;7.210;2023-08-20T03:42:12;61.58;;;37.15;;
22439;SDS011;11387;51.612;7.210;2023-08-20T03:44:40;68.47;;;37.88;;
22439;SDS011;11387;51.612;7.210;2023-08-20T03:47:09;62.78;;;37.38;;
22439;SDS011;11387;51.612;7.210;2023-08-20T03:49:37;67.40;;;41.15;;
22439;SDS011;11387;51.612;7.210;2023-08-20T03:52:06;72.35;;;40.97;;
22439;SDS011;11387;51.612;7.210;2023-08-20T03:54:34;74.32;;;40.92;;
22439;SDS011;11387;51.612;7.210;2023-08-20T03:57:04;69.10;;;41.42;;
22439;SDS011;11387;51.612;7.210;2023-08-20T03:59:33;81.85;;;46.40;;
22439;SDS011;11387;51.612;7.210;2023-08-20T04:02:01;84.82;;;47.15;;
22439;SDS011;11387;51.612;7.210;2023-08-20T04:04:30;86.50;;;45.75;;
22439;SDS011;11387;51.612;7.210;2023-08-20T04:06:59;82.32;;;46.90;;
22439;SDS011;11387;51.612;7.210;2023-08-20T04:09:28;75.07;;;43.42;;
22439;SDS011;11387;51.612;7.210;2023-08-20T04:11:57;86.70;;;47.75;;
22439;SDS011;11387;51.612;7.210;2023-08-20T04:14:26;79.90;;;44.78;;
22439;SDS011;11387;51.612;7.210;2023-08-20T04:16:55;96.25;;;49.55;;
22439;SDS011;11387;51.612;7.210;2023-08-20T04:19:24;117.20;;;52.38;;
22439;SDS011;11387;51.612;7.210;2023-08-20T04:21:52;135.50;;;56.50;;
22439;SDS011;11387;51.612;7.210;2023-08-20T04:24:21;133.02;;;54.60;;
22439;SDS011;11387;51.612;7.210;2023-08-20T04:26:49;144.50;;;57.78;;
22439;SDS011;11387;51.612;7.210;2023-08-20T04:29:18;148.23;;;59.20;;
22439;SDS011;11387;51.612;7.210;2023-08-20T04:31:47;162.07;;;56.90;;
22439;SDS011;11387;51.612;7.210;2023-08-20T04:34:16;140.88;;;54.63;;
22439;SDS011;11387;51.612;7.210;2023-08-20T04:37:04;305.08;;;64.65;;
22439;SDS011;11387;51.612;7.210;2023-08-20T04:39:32;313.20;;;69.30;;
22439;SDS011;11387;51.612;7.210;2023-08-20T04:42:01;218.35;;;61.67;;
22439;SDS011;11387;51.612;7.210;2023-08-20T04:44:29;309.70;;;68.32;;
22439;SDS011;11387;51.612;7.210;2023-08-20T04:46:59;260.88;;;69.03;;
22439;SDS011;11387;51.612;7.210;2023-08-20T04:49:28;403.27;;;76.78;;
22439;SDS011;11387;51.612;7.210;2023-08-20T04:51:57;293.55;;;70.80;;
22439;SDS011;11387;51.612;7.210;2023-08-20T04:54:25;405.23;;;76.72;;
22439;SDS011;11387;51.612;7.210;2023-08-20T04:56:54;325.63;;;72.38;;
22439;SDS011;11387;51.612;7.210;2023-08-20T04:59:22;343.83;;;73.25;;
22439;SDS011;11387;51.612;7.210;2023-08-20T05:01:51;348.02;;;72.55;;
22439;SDS011;11387;51.612;7.210;2023-08-20T05:04:21;462.63;;;84.22;;
22439;SDS011;11387;51.612;7.210;2023-08-20T05:06:50;295.65;;;72.28;;
22439;SDS011;11387;51.612;7.210;2023-08-20T05:09:18;589.78;;;86.50;;
22439;SDS011;11387;51.612;7.210;2023-08-20T05:11:48;469.85;;;75.72;;
22439;SDS011;11387;51.612;7.210;2023-08-20T05:14:16;296.27;;;65.22;;
22439;SDS011;11387;51.612;7.210;2023-08-20T05:16:44;362.58;;;64.05;;
22439;SDS011;11387;51.612;7.210;2023-08-20T05:19:13;160.07;;;61.13;;
22439;SDS011;11387;51.612;7.210;2023-08-20T05:21:43;243.98;;;59.67;;
22439;SDS011;11387;51.612;7.210;2023-08-20T05:24:11;150.30;;;54.63;;
22439;SDS011;11387;51.612;7.210;2023-08-20T05:26:40;371.40;;;63.40;;
22439;SDS011;11387;51.612;7.210;2023-08-20T05:29:08;681.22;;;80.28;;
22439;SDS011;11387;51.612;7.210;2023-08-20T05:31:37;577.80;;;80.03;;
22439;SDS011;11387;51.612;7.210;2023-08-20T05:34:05;159.80;;;55.10;;
22439;SDS011;11387;51.612;7.210;2023-08-20T05:36:34;457.90;;;73.75;;
22439;SDS011;11387;51.612;7.210;2023-08-20T05:39:04;451.23;;;74.60;;
22439;SDS011;11387;51.612;7.210;2023-08-20T05:41:32;240.25;;;58.53;;
22439;SDS011;11387;51.612;7.210;2023-08-20T05:44:01;370.85;;;67.25;;
22439;SDS011;11387;51.612;7.210;2023-08-20T05:46:29;603.70;;;87.68;;
22439;SDS011;11387;51.612;7.210;2023-08-20T05:48:58;283.55;;;67.55;;
22439;SDS011;11387;51.612;7.210;2023-08-20T05:51:26;395.00;;;74.20;;
22439;SDS011;11387;51.612;7.210;2023-08-20T05:53:55;395.10;;;81.18;;
22439;SDS011;11387;51.612;7.210;2023-08-20T05:56:25;352.65;;;78.15;;
22439;SDS011;11387;51.612;7.210;2023-08-20T05:58:53;458.25;;;82.57;;
22439;SDS011;11387;51.612;7.210;2023-08-20T06:01:22;521.13;;;91.85;;
22439;SDS011;11387;51.612;7.210;2023-08-20T06:03:51;647.92;;;101.63;;
22439;SDS011;11387;51.612;7.210;2023-08-20T06:06:20;464.35;;;168.07;;
22439;SDS011;11387;51.612;7.210;2023-08-20T06:08:49;445.92;;;78.82;;
22439;SDS011;11387;51.612;7.210;2023-08-20T06:11:35;266.83;;;68.93;;
22439;SDS011;11387;51.612;7.210;2023-08-20T06:14:04;343.77;;;71.32;;
22439;SDS011;11387;51.612;7.210;2023-08-20T06:16:32;189.43;;;66.57;;
22439;SDS011;11387;51.612;7.210;2023-08-20T06:19:01;417.20;;;73.97;;
22439;SDS011;11387;51.612;7.210;2023-08-20T06:21:31;179.13;;;64.20;;
22439;SDS011;11387;51.612;7.210;2023-08-20T06:24:00;188.93;;;59.22;;
22439;SDS011;11387;51.612;7.210;2023-08-20T06:26:30;405.73;;;71.03;;
22439;SDS011;11387;51.612;7.210;2023-08-20T06:28:59;206.52;;;66.25;;
22439;SDS011;11387;51.612;7.210;2023-08-20T06:31:28;194.02;;;64.28;;
22439;SDS011;11387;51.612;7.210;2023-08-20T06:33:57;259.45;;;66.25;;
22439;SDS011;11387;51.612;7.210;2023-08-20T06:36:26;157.98;;;62.30;;
22439;SDS011;11387;51.612;7.210;2023-08-20T06:38:54;137.75;;;60.50;;
22439;SDS011;11387;51.612;7.210;2023-08-20T06:41:23;184.20;;;61.45;;
22439;SDS011;11387;51.612;7.210;2023-08-20T06:43:51;143.10;;;61.85;;
22439;SDS011;11387;51.612;7.210;2023-08-20T06:46:21;144.52;;;60.20;;
22439;SDS011;11387;51.612;7.210;2023-08-20T06:48:50;145.82;;;56.80;;
22439;SDS011;11387;51.612;7.210;2023-08-20T06:51:20;177.80;;;58.30;;
22439;SDS011;11387;51.612;7.210;2023-08-20T06:53:50;129.40;;;62.15;;
22439;SDS011;11387;51.612;7.210;2023-08-20T06:56:19;118.60;;;56.67;;
22439;SDS011;11387;51.612;7.210;2023-08-20T06:58:47;116.45;;;57.30;;
22439;SDS011;11387;51.612;7.210;2023-08-20T07:01:16;118.78;;;58.17;;
22439;SDS011;11387;51.612;7.210;2023-08-20T07:03:46;120.32;;;60.80;;
22439;SDS011;11387;51.612;7.210;2023-08-20T07:06:15;133.23;;;59.58;;
22439;SDS011;11387;51.612;7.210;2023-08-20T07:08:45;135.50;;;60.53;;
22439;SDS011;11387;51.612;7.210;2023-08-20T07:11:14;108.35;;;55.85;;
22439;SDS011;11387;51.612;7.210;2023-08-20T07:13:42;109.15;;;55.85;;
22439;SDS011;11387;51.612;7.210;2023-08-20T07:16:11;108.57;;;53.38;;
22439;SDS011;11387;51.612;7.210;2023-08-20T07:18:41;100.70;;;54.63;;
22439;SDS011;11387;51.612;7.210;2023-08-20T07:21:11;97.93;;;55.15;;
22439;SDS011;11387;51.612;7.210;2023-08-20T07:23:40;99.35;;;54.92;;
22439;SDS011;11387;51.612;7.210;2023-08-20T07:26:09;89.38;;;51.58;;
22439;SDS011;11387;51.612;7.210;2023-08-20T07:28:39;75.93;;;46.42;;
22439;SDS011;11387;51.612;7.210;2023-08-20T07:31:27;77.20;;;50.33;;
22439;SDS011;11387;51.612;7.210;2023-08-20T07:33:57;72.78;;;47.30;;
22439;SDS011;11387;51.612;7.210;2023-08-20T07:36:33;70.68;;;45.83;;
22439;SDS011;11387;51.612;7.210;2023-08-20T07:39:02;79.90;;;48.42;;
22439;SDS011;11387;51.612;7.210;2023-08-20T07:41:30;76.63;;;49.42;;
22439;SDS011;11387;51.612;7.210;2023-08-20T07:44:00;70.45;;;44.88;;
22439;SDS011;11387;51.612;7.210;2023-08-20T07:46:33;76.72;;;47.63;;
22439;SDS011;11387;51.612;7.210;2023-08-20T07:49:02;67.53;;;46.45;;
22439;SDS011;11387;51.612;7.210;2023-08-20T07:51:31;68.03;;;45.13;;
22439;SDS011;11387;51.612;7.210;2023-08-20T07:54:01;60.72;;;42.08;;
22439;SDS011;11387;51.612;7.210;2023-08-20T07:56:30;60.55;;;41.72;;
22439;SDS011;11387;51.612;7.210;2023-08-20T07:58:59;56.03;;;40.45;;
22439;SDS011;11387;51.612;7.210;2023-08-20T08:01:28;54.75;;;40.30;;
22439;SDS011;11387;51.612;7.210;2023-08-20T08:03:56;55.20;;;41.03;;
22439;SDS011;11387;51.612;7.210;2023-08-20T08:06:25;50.53;;;37.20;;
22439;SDS011;11387;51.612;7.210;2023-08-20T08:08:54;46.33;;;36.28;;
22439;SDS011;11387;51.612;7.210;2023-08-20T08:11:24;43.75;;;37.00;;
22439;SDS011;11387;51.612;7.210;2023-08-20T08:13:52;48.50;;;38.38;;
22439;SDS011;11387;51.612;7.210;2023-08-20T08:16:21;45.00;;;36.47;;
22439;SDS011;11387;51.612;7.210;2023-08-20T08:18:50;45.22;;;36.60;;
22439;SDS011;11387;51.612;7.210;2023-08-20T08:21:18;40.58;;;32.97;;
22439;SDS011;11387;51.612;7.210;2023-08-20T08:23:47;38.28;;;32.90;;
22439;SDS011;11387;51.612;7.210;2023-08-20T08:26:16;37.25;;;33.22;;
22439;SDS011;11387;51.612;7.210;2023-08-20T08:28:46;37.65;;;32.28;;
22439;SDS011;11387;51.612;7.210;2023-08-20T08:31:14;33.08;;;29.35;;
22439;SDS011;11387;51.612;7.210;2023-08-20T08:33:43;37.92;;;33.60;;
22439;SDS011;11387;51.612;7.210;2023-08-20T08:36:11;36.00;;;31.25;;
22439;SDS011;11387;51.612;7.210;2023-08-20T08:38:42;35.25;;;30.77;;
22439;SDS011;11387;51.612;7.210;2023-08-20T08:41:11;41.03;;;36.42;;
22439;SDS011;11387;51.612;7.210;2023-08-20T08:43:41;43.40;;;35.17;;
22439;SDS011;11387;51.612;7.210;2023-08-20T08:46:12;32.58;;;29.08;;
22439;SDS011;11387;51.612;7.210;2023-08-20T08:48:42;34.70;;;30.98;;
22439;SDS011;11387;51.612;7.210;2023-08-20T08:51:13;32.13;;;28.65;;
22439;SDS011;11387;51.612;7.210;2023-08-20T08:53:42;32.75;;;29.15;;
22439;SDS011;11387;51.612;7.210;2023-08-20T08:56:11;32.45;;;28.50;;
22439;SDS011;11387;51.612;7.210;2023-08-20T08:58:40;30.65;;;27.35;;
22439;SDS011;11387;51.612;7.210;2023-08-20T09:01:08;31.30;;;28.00;;
22439;SDS011;11387;51.612;7.210;2023-08-20T09:03:38;27.35;;;24.40;;
22439;SDS011;11387;51.612;7.210;2023-08-20T09:06:08;27.75;;;24.70;;
22439;SDS011;11387;51.612;7.210;2023-08-20T09:08:37;27.90;;;25.02;;
22439;SDS011;11387;51.612;7.210;2023-08-20T09:11:06;26.20;;;22.27;;
22439;SDS011;11387;51.612;7.210;2023-08-20T09:13:36;25.50;;;20.90;;
22439;SDS011;11387;51.612;7.210;2023-08-20T09:16:05;21.13;;;17.52;;
22439;SDS011;11387;51.612;7.210;2023-08-20T09:18:39;16.60;;;14.88;;
22439;SDS011;11387;51.612;7.210;2023-08-20T09:21:08;15.02;;;13.38;;
22439;SDS011;11387;51.612;7.210;2023-08-20T09:23:38;19.98;;;12.60;;
22439;SDS011;11387;51.612;7.210;2023-08-20T09:26:07;12.20;;;10.93;;
22439;SDS011;11387;51.612;7.210;2023-08-20T09:28:40;16.48;;;12.90;;
22439;SDS011;11387;51.612;7.210;2023-08-20T09:31:09;15.57;;;14.05;;
22439;SDS011;11387;51.612;7.210;2023-08-20T09:33:49;9.68;;;6.55;;
22439;SDS011;11387;51.612;7.210;2023-08-20T09:36:29;7.28;;;6.45;;
22439;SDS011;11387;51.612;7.210;2023-08-20T09:38:59;9.23;;;7.28;;
22439;SDS011;11387;51.612;7.210;2023-08-20T09:41:27;10.05;;;7.75;;
22439;SDS011;11387;51.612;7.210;2023-08-20T09:43:57;9.38;;;7.95;;
22439;SDS011;11387;51.612;7.210;2023-08-20T09:46:27;10.90;;;8.90;;
22439;SDS011;11387;51.612;7.210;2023-08-20T09:49:00;10.50;;;8.70;;
22439;SDS011;11387;51.612;7.210;2023-08-20T09:51:34;9.35;;;7.35;;
22439;SDS011;11387;51.612;7.210;2023-08-20T09:54:07;11.10;;;8.70;;
22439;SDS011;11387;51.612;7.210;2023-08-20T09:56:42;11.70;;;8.55;;
22439;SDS011;11387;51.612;7.210;2023-08-20T09:59:14;11.38;;;8.85;;
22439;SDS011;11387;51.612;7.210;2023-08-20T10:01:44;10.98;;;8.27;;
22439;SDS011;11387;51.612;7.210;2023-08-20T10:04:16;8.98;;;8.07;;
22439;SDS011;11387;51.612;7.210;2023-08-20T10:06:46;10.27;;;7.85;;
22439;SDS011;11387;51.612;7.210;2023-08-20T10:09:38;13.23;;;10.52;;
22439;SDS011;11387;51.612;7.210;2023-08-20T10:12:11;14.05;;;12.50;;
22439;SDS011;11387;51.612;7.210;2023-08-20T10:14:40;19.83;;;13.88;;
22439;SDS011;11387;51.612;7.210;2023-08-20T10:17:11;13.65;;;11.55;;
22439;SDS011;11387;51.612;7.210;2023-08-20T10:19:41;12.20;;;10.35;;
22439;SDS011;11387;51.612;7.210;2023-08-20T10:22:10;12.77;;;11.43;;
22439;SDS011;11387;51.612;7.210;2023-08-20T10:24:40;14.77;;;10.95;;
22439;SDS011;11387;51.612;7.210;2023-08-20T10:27:10;13.68;;;11.55;;
22439;SDS011;11387;51.612;7.210;2023-08-20T10:29:39;13.43;;;11.45;;
22439;SDS011;11387;51.612;7.210;2023-08-20T10:32:09;13.68;;;12.20;;
22439;SDS011;11387;51.612;7.210;2023-08-20T10:34:42;14.35;;;12.13;;
22439;SDS011;11387;51.612;7.210;2023-08-20T10:37:25;16.63;;;11.98;;
22439;SDS011;11387;51.612;7.210;2023-08-20T10:39:55;16.95;;;13.60;;
22439;SDS011;11387;51.612;7.210;2023-08-20T10:42:25;16.55;;;13.68;;
22439;SDS011;11387;51.612;7.210;2023-08-20T10:44:57;13.90;;;12.20;;
22439;SDS011;11387;51.612;7.210;2023-08-20T10:47:34;16.90;;;14.05;;
22439;SDS011;11387;51.612;7.210;2023-08-20T10:50:07;16.33;;;14.20;;
22439;SDS011;11387;51.612;7.210;2023-08-20T10:52:38;16.17;;;14.38;;
22439;SDS011;11387;51.612;7.210;2023-08-20T10:55:08;19.48;;;17.38;;
22439;SDS011;11387;51.612;7.210;2023-08-20T10:57:38;20.75;;;15.68;;
22439;SDS011;11387;51.612;7.210;2023-08-20T11:00:07;16.90;;;11.80;;
22439;SDS011;11387;51.612;7.210;2023-08-20T11:02:38;13.38;;;11.07;;
22439;SDS011;11387;51.612;7.210;2023-08-20T11:05:16;13.35;;;11.98;;
22439;SDS011;11387;51.612;7.210;2023-08-20T11:07:47;11.50;;;9.82;;
22439;SDS011;11387;51.612;7.210;2023-08-20T11:10:17;12.63;;;10.13;;
22439;SDS011;11387;51.612;7.210;2023-08-20T11:12:46;11.90;;;10.25;;
22439;SDS011;11387;51.612;7.210;2023-08-20T11:15:18;12.00;;;10.75;;
22439;SDS011;11387;51.612;7.210;2023-08-20T11:17:49;14.80;;;12.40;;
22439;SDS011;11387;51.612;7.210;2023-08-20T11:20:20;16.30;;;13.05;;
22439;SDS011;11387;51.612;7.210;2023-08-20T11:22:49;13.95;;;12.02;;
22439;SDS011;11387;51.612;7.210;2023-08-20T11:25:26;11.88;;;10.75;;
22439;SDS011;11387;51.612;7.210;2023-08-20T11:27:54;11.95;;;10.70;;
22439;SDS011;11387;51.612;7.210;2023-08-20T11:30:23;14.98;;;10.90;;
22439;SDS011;11387;51.612;7.210;2023-08-20T11:32:58;13.13;;;10.65;;
22439;SDS011;11387;51.612;7.210;2023-08-20T11:35:28;9.50;;;8.15;;
22439;SDS011;11387;51.612;7.210;2023-08-20T11:37:57;10.98;;;8.63;;
22439;SDS011;11387;51.612;7.210;2023-08-20T11:40:28;10.75;;;7.47;;
22439;SDS011;11387;51.612;7.210;2023-08-20T11:42:57;8.95;;;6.95;;
22439;SDS011;11387;51.612;7.210;2023-08-20T11:45:25;9.38;;;7.68;;
22439;SDS011;11387;51.612;7.210;2023-08-20T11:47:55;11.40;;;7.53;;
22439;SDS011;11387;51.612;7.210;2023-08-20T11:50:28;8.85;;;7.78;;
22439;SDS011;11387;51.612;7.210;2023-08-20T11:52:59;8.65;;;6.97;;
22439;SDS011;11387;51.612;7.210;2023-08-20T11:55:29;9.57;;;6.95;;
22439;SDS011;11387;51.612;7.210;2023-08-20T11:57:58;9.20;;;6.30;;
22439;SDS011;11387;51.612;7.210;2023-08-20T12:00:29;7.93;;;5.47;;
22439;SDS011;11387;51.612;7.210;2023-08-20T12:02:59;7.35;;;5.20;;
22439;SDS011;11387;51.612;7.210;2023-08-20T12:05:32;7.20;;;5.13;;
22439;SDS011;11387;51.612;7.210;2023-08-20T12:08:02;6.30;;;5.32;;
22439;SDS011;11387;51.612;7.210;2023-08-20T12:10:32;7.35;;;6.30;;
22439;SDS011;11387;51.612;7.210;2023-08-20T12:13:01;9.77;;;6.35;;
22439;SDS011;11387;51.612;7.210;2023-08-20T12:15:31;13.15;;;6.22;;
22439;SDS011;11387;51.612;7.210;2023-08-20T12:18:00;9.18;;;5.72;;
22439;SDS011;11387;51.612;7.210;2023-08-20T12:20:33;7.90;;;5.60;;
22439;SDS011;11387;51.612;7.210;2023-08-20T12:23:05;9.85;;;6.05;;
22439;SDS011;11387;51.612;7.210;2023-08-20T12:25:35;7.72;;;6.18;;
22439;SDS011;11387;51.612;7.210;2023-08-20T12:28:04;7.55;;;6.15;;
22439;SDS011;11387;51.612;7.210;2023-08-20T12:30:35;7.70;;;5.55;;
22439;SDS011;11387;51.612;7.210;2023-08-20T12:33:06;6.68;;;6.00;;
22439;SDS011;11387;51.612;7.210;2023-08-20T12:35:39;6.72;;;5.72;;
22439;SDS011;11387;51.612;7.210;2023-08-20T12:38:08;6.25;;;5.18;;
22439;SDS011;11387;51.612;7.210;2023-08-20T12:40:37;8.57;;;5.43;;
22439;SDS011;11387;51.612;7.210;2023-08-20T12:43:05;5.53;;;4.95;;
22439;SDS011;11387;51.612;7.210;2023-08-20T12:45:34;11.55;;;5.00;;
22439;SDS011;11387;51.612;7.210;2023-08-20T12:48:03;9.95;;;4.82;;
22439;SDS011;11387;51.612;7.210;2023-08-20T12:50:33;5.80;;;5.20;;
22439;SDS011;11387;51.612;7.210;2023-08-20T12:53:25;7.40;;;5.47;;
22439;SDS011;11387;51.612;7.210;2023-08-20T12:55:55;9.75;;;5.10;;
22439;SDS011;11387;51.612;7.210;2023-08-20T12:58:24;7.97;;;4.70;;
22439;SDS011;11387;51.612;7.210;2023-08-20T13:00:52;6.82;;;4.88;;
22439;SDS011;11387;51.612;7.210;2023-08-20T13:03:21;7.65;;;4.63;;
22439;SDS011;11387;51.612;7.210;2023-08-20T13:05:50;5.80;;;4.07;;
22439;SDS011;11387;51.612;7.210;2023-08-20T13:08:20;7.03;;;4.70;;
22439;SDS011;11387;51.612;7.210;2023-08-20T13:10:52;6.70;;;3.92;;
22439;SDS011;11387;51.612;7.210;2023-08-20T13:13:23;7.32;;;4.20;;
22439;SDS011;11387;51.612;7.210;2023-08-20T13:15:55;6.28;;;3.58;;
22439;SDS011;11387;51.612;7.210;2023-08-20T13:18:24;7.45;;;4.40;;
22439;SDS011;11387;51.612;7.210;2023-08-20T13:20:53;5.80;;;4.03;;
22439;SDS011;11387;51.612;7.210;2023-08-20T13:23:22;5.95;;;3.95;;
22439;SDS011;11387;51.612;7.210;2023-08-20T13:25:52;8.82;;;3.45;;
22439;SDS011;11387;51.612;7.210;2023-08-20T13:28:21;5.07;;;2.78;;
22439;SDS011;11387;51.612;7.210;2023-08-20T13:30:49;6.57;;;2.65;;
22439;SDS011;11387;51.612;7.210;2023-08-20T13:33:18;5.57;;;2.90;;
22439;SDS011;11387;51.612;7.210;2023-08-20T13:35:46;4.82;;;2.42;;
22439;SDS011;11387;51.612;7.210;2023-08-20T13:38:15;5.50;;;2.85;;
22439;SDS011;11387;51.612;7.210;2023-08-20T13:40:43;4.43;;;2.58;;
22439;SDS011;11387;51.612;7.210;2023-08-20T13:43:13;4.75;;;2.63;;
22439;SDS011;11387;51.612;7.210;2023-08-20T13:45:42;7.80;;;2.50;;
22439;SDS011;11387;51.612;7.210;2023-08-20T13:48:11;5.45;;;2.63;;
22439;SDS011;11387;51.612;7.210;2023-08-20T13:50:40;8.52;;;2.75;;
22439;SDS011;11387;51.612;7.210;2023-08-20T13:53:08;6.22;;;2.70;;
22439;SDS011;11387;51.612;7.210;2023-08-20T13:55:38;8.85;;;2.83;;
22439;SDS011;11387;51.612;7.210;2023-08-20T13:58:07;5.15;;;2.22;;
22439;SDS011;11387;51.612;7.210;2023-08-20T14:00:38;6.43;;;3.05;;
22439;SDS011;11387;51.612;7.210;2023-08-20T14:03:06;6.18;;;2.60;;
22439;SDS011;11387;51.612;7.210;2023-08-20T14:05:35;5.05;;;2.40;;
22439;SDS011;11387;51.612;7.210;2023-08-20T14:08:04;5.18;;;2.78;;
22439;SDS011;11387;51.612;7.210;2023-08-20T14:10:33;5.30;;;2.33;;
22439;SDS011;11387;51.612;7.210;2023-08-20T14:13:02;6.50;;;2.78;;
22439;SDS011;11387;51.612;7.210;2023-08-20T14:15:31;5.68;;;3.03;;
22439;SDS011;11387;51.612;7.210;2023-08-20T14:18:01;6.28;;;2.58;;
22439;SDS011;11387;51.612;7.210;2023-08-20T14:20:30;8.40;;;3.00;;
22439;SDS011;11387;51.612;7.210;2023-08-20T14:22:58;8.20;;;2.72;;
22439;SDS011;11387;51.612;7.210;2023-08-20T14:25:27;5.70;;;3.00;;
22439;SDS011;11387;51.612;7.210;2023-08-20T14:27:55;6.85;;;2.63;;
22439;SDS011;11387;51.612;7.210;2023-08-20T14:30:24;6.80;;;2.97;;
22439;SDS011;11387;51.612;7.210;2023-08-20T14:32:54;5.32;;;2.75;;
22439;SDS011;11387;51.612;7.210;2023-08-20T14:35:24;9.75;;;3.20;;
22439;SDS011;11387;51.612;7.210;2023-08-20T14:37:53;14.30;;;3.55;;
22439;SDS011;11387;51.612;7.210;2023-08-20T14:40:22;6.47;;;2.40;;
22439;SDS011;11387;51.612;7.210;2023-08-20T14:42:51;6.00;;;2.92;;
22439;SDS011;11387;51.612;7.210;2023-08-20T14:45:37;8.48;;;3.05;;